Time;durP1;ratioP1;P1;durP2;ratioP2;P2;SDS_P1;SDS_P2;PMS_P1;PMS_P2;Temp;Humidity;BMP_temperature;BMP_pressure;BME280_temperature;BME280_humidity;BME280_pressure;Samples;Min_cycle;Max_cycle;Signal;HPM_P1;HPM_P2
2021/12/08 00:00:47;;;;;;;;;;;23.80;36.00;;;;;;5123259;27;19918;-83
2021/12/08 00:03:13;;;;;;;;;;;23.70;36.00;;;;;;5139794;27;20347;-80
2021/12/08 00:05:39;;;;;;;;;;;23.70;36.00;;;;;;5139235;27;19955;-80
2021/12/08 00:08:08;;;;;;;;;;;23.70;36.00;;;;;;5139334;27;19946;-81
2021/12/08 00:13:07;;;;;;;;;;;23.60;36.00;;;;;;5139506;27;20331;-81
2021/12/08 00:15:38;;;;;;;;;;;23.60;36.00;;;;;;5122678;27;19915;-82
2021/12/08 00:18:05;;;;;;;;;;;23.60;36.00;;;;;;5139308;27;19911;-81
2021/12/08 00:20:33;;;;;;;;;;;23.60;36.10;;;;;;5138980;27;20343;-80
2021/12/08 00:22:59;;;;;;;;;;;23.50;36.10;;;;;;5139291;27;20335;-81
2021/12/08 00:25:24;;;;;;;;;;;23.50;36.10;;;;;;5139047;27;19982;-79
2021/12/08 00:27:52;;;;;;;;;;;23.50;36.10;;;;;;5121875;27;19950;-80
2021/12/08 00:30:20;;;;;;;;;;;23.40;36.20;;;;;;5139583;27;19983;-84
2021/12/08 00:32:46;;;;;;;;;;;23.40;36.30;;;;;;5139820;27;19912;-85
2021/12/08 00:35:12;;;;;;;;;;;23.40;36.30;;;;;;5122041;27;20002;-83
2021/12/08 00:37:40;;;;;;;;;;;23.40;36.40;;;;;;5139095;27;19979;-85
2021/12/08 00:40:07;;;;;;;;;;;23.30;36.30;;;;;;5121890;27;19911;-82
2021/12/08 00:42:36;;;;;;;;;;;23.30;36.50;;;;;;5139199;27;19918;-82
2021/12/08 00:45:06;;;;;;;;;;;23.20;36.50;;;;;;5122349;27;19907;-83
2021/12/08 00:47:31;;;;;;;;;;;23.20;36.60;;;;;;5122018;27;19908;-84
2021/12/08 00:49:57;;;;;;;;;;;23.10;36.60;;;;;;5121804;27;19915;-81
2021/12/08 00:52:28;;;;;;;;;;;23.10;36.80;;;;;;5138962;27;19907;-83
2021/12/08 00:54:56;;;;;;;;;;;23.00;36.80;;;;;;5122546;27;19918;-81
2021/12/08 00:57:22;;;;;;;;;;;23.00;36.90;;;;;;5138849;27;19961;-82
2021/12/08 00:59:50;;;;;;;;;;;22.90;36.90;;;;;;5121862;27;20223;-83
2021/12/08 01:02:15;;;;;;;;;;;23.00;37.00;;;;;;5139376;27;19966;-83
2021/12/08 01:04:43;;;;;;;;;;;22.90;37.00;;;;;;5121638;27;19907;-82
2021/12/08 01:07:14;;;;;;;;;;;22.90;37.10;;;;;;5121871;27;19907;-82
2021/12/08 01:09:39;;;;;;;;;;;22.90;37.10;;;;;;5121883;27;19911;-82
2021/12/08 01:12:08;;;;;;;;;;;22.90;37.10;;;;;;5122056;27;19907;-81
2021/12/08 01:14:33;;;;;;;;;;;22.90;37.10;;;;;;5121669;27;19956;-84
2021/12/08 01:16:59;;;;;;;;;;;22.80;37.20;;;;;;5121479;27;19907;-82
2021/12/08 01:19:25;;;;;;;;;;;22.80;37.20;;;;;;5121856;27;19915;-83
2021/12/08 01:21:50;;;;;;;;;;;22.80;37.20;;;;;;5121513;27;20319;-85
2021/12/08 01:24:19;;;;;;;;;;;22.80;37.20;;;;;;5121998;27;19922;-79
2021/12/08 01:26:49;;;;;;;;;;;22.70;37.30;;;;;;5138986;27;19914;-83
2021/12/08 01:29:15;;;;;;;;;;;22.70;37.40;;;;;;5121803;27;19919;-83
2021/12/08 01:31:42;;;;;;;;;;;22.70;37.50;;;;;;5121253;27;19918;-83
2021/12/08 01:34:08;;;;;;;;;;;22.60;37.40;;;;;;5121742;27;19907;-82
2021/12/08 01:36:33;;;;;;;;;;;22.60;37.40;;;;;;5138557;27;19917;-82
2021/12/08 01:38:59;;;;;;;;;;;22.70;37.50;;;;;;5121380;27;19907;-81
2021/12/08 01:41:27;;;;;;;;;;;22.70;37.50;;;;;;5121268;27;19907;-81
2021/12/08 01:46:37;;;;;;;;;;;22.70;37.40;;;;;;5141134;27;19918;-81
2021/12/08 01:49:05;;;;;;;;;;;22.70;37.50;;;;;;5138326;27;19911;-81
2021/12/08 01:51:31;;;;;;;;;;;22.60;37.40;;;;;;5138476;27;20355;-82
2021/12/08 01:54:02;;;;;;;;;;;22.60;37.40;;;;;;5142121;27;19944;-81
2021/12/08 01:56:28;;;;;;;;;;;22.60;37.50;;;;;;5142241;27;20181;-83
2021/12/08 01:58:54;;;;;;;;;;;22.60;37.40;;;;;;5141738;27;19914;-81
2021/12/08 02:01:22;;;;;;;;;;;22.60;37.40;;;;;;5141723;27;20044;-82
2021/12/08 02:03:53;;;;;;;;;;;22.60;37.40;;;;;;5124799;27;19915;-81
2021/12/08 02:06:19;;;;;;;;;;;22.60;37.40;;;;;;5142430;27;19907;-81
2021/12/08 02:08:45;;;;;;;;;;;22.60;37.40;;;;;;5141959;27;19911;-80
2021/12/08 02:11:13;;;;;;;;;;;22.60;37.50;;;;;;5141687;27;19907;-79
2021/12/08 02:13:43;;;;;;;;;;;22.60;37.40;;;;;;5124516;27;19923;-80
2021/12/08 02:16:10;;;;;;;;;;;22.60;37.40;;;;;;5142079;27;20006;-80
2021/12/08 02:18:36;;;;;;;;;;;22.60;37.40;;;;;;5141418;27;19918;-82
2021/12/08 02:21:25;;;;;;;;;;;22.60;37.40;;;;;;5141243;27;19919;-81
2021/12/08 02:23:51;;;;;;;;;;;22.60;37.40;;;;;;5148519;27;19954;-81
2021/12/08 02:26:19;;;;;;;;;;;22.60;37.50;;;;;;5141603;27;20255;-83
2021/12/08 02:28:45;;;;;;;;;;;22.50;37.50;;;;;;5124248;27;19922;-83
2021/12/08 02:31:16;;;;;;;;;;;22.60;37.50;;;;;;5124302;27;19907;-82
2021/12/08 02:49:53;;;;;;;;;;;22.50;37.70;;;;;;5141020;27;20336;-79
2021/12/08 02:52:21;;;;;;;;;;;22.50;37.60;;;;;;5123952;27;19907;-81
2021/12/08 02:54:49;;;;;;;;;;;22.50;37.60;;;;;;5123782;27;19946;-81
2021/12/08 02:57:18;;;;;;;;;;;22.50;37.60;;;;;;5123651;27;19919;-81
2021/12/08 02:59:44;;;;;;;;;;;22.50;37.70;;;;;;5140554;27;19958;-80
2021/12/08 03:02:10;;;;;;;;;;;22.50;37.70;;;;;;5123430;27;19930;-82
2021/12/08 03:04:36;;;;;;;;;;;22.50;37.70;;;;;;5123418;27;20333;-81
2021/12/08 03:07:04;;;;;;;;;;;22.50;37.70;;;;;;5140706;27;19907;-80
2021/12/08 03:09:32;;;;;;;;;;;22.50;37.70;;;;;;5123528;27;19911;-80
2021/12/08 03:12:00;;;;;;;;;;;22.50;37.70;;;;;;5140638;27;20003;-81
2021/12/08 03:14:31;;;;;;;;;;;22.50;37.70;;;;;;5140687;27;19911;-82
2021/12/08 03:16:58;;;;;;;;;;;22.50;37.70;;;;;;5140975;27;20239;-81
2021/12/08 03:19:26;;;;;;;;;;;22.50;37.80;;;;;;5123080;27;19926;-80
2021/12/08 03:21:54;;;;;;;;;;;22.50;37.80;;;;;;5140556;27;19914;-79
2021/12/08 03:32:18;;;;;;;;;;;22.50;37.80;;;;;;5158214;27;20232;-80
2021/12/08 03:34:50;;;;;;;;;;;22.50;37.80;;;;;;5122889;27;20404;-81
2021/12/08 03:37:17;;;;;;;;;;;22.40;37.80;;;;;;5140913;27;19918;-80
2021/12/08 03:39:45;;;;;;;;;;;22.50;37.90;;;;;;5139986;27;19907;-82
2021/12/08 03:42:11;;;;;;;;;;;22.50;37.80;;;;;;5123107;27;19907;-81
2021/12/08 03:44:38;;;;;;;;;;;22.50;37.80;;;;;;5122600;27;20353;-80
2021/12/08 03:47:14;;;;;;;;;;;22.50;37.80;;;;;;5140335;27;19911;-85
2021/12/08 03:49:40;;;;;;;;;;;22.50;37.80;;;;;;5123627;27;19998;-81
2021/12/08 03:52:05;;;;;;;;;;;22.40;37.80;;;;;;5122661;27;19938;-81
2021/12/08 03:54:31;;;;;;;;;;;22.50;37.80;;;;;;5139767;27;19907;-85
2021/12/08 03:56:56;;;;;;;;;;;22.40;37.80;;;;;;5139751;27;19907;-86
2021/12/08 03:59:22;;;;;;;;;;;22.50;37.80;;;;;;5122500;27;19991;-84
2021/12/08 04:01:47;;;;;;;;;;;22.50;37.80;;;;;;5122349;27;20358;-82
2021/12/08 04:04:13;;;;;;;;;;;22.40;37.90;;;;;;5139391;27;19907;-80
2021/12/08 04:06:48;;;;;;;;;;;22.40;37.90;;;;;;5139514;27;19918;-80
2021/12/08 04:09:19;;;;;;;;;;;22.40;37.90;;;;;;5140379;27;19911;-81
2021/12/08 04:11:47;;;;;;;;;;;22.40;37.90;;;;;;5157501;27;19907;-80
2021/12/08 04:14:14;;;;;;;;;;;22.40;37.90;;;;;;5122194;27;20050;-81
2021/12/08 04:16:47;;;;;;;;;;;22.40;37.90;;;;;;5122140;27;19950;-79
2021/12/08 04:19:15;;;;;;;;;;;22.40;37.90;;;;;;5122080;27;20018;-81
2021/12/08 04:21:41;;;;;;;;;;;22.40;37.90;;;;;;5122580;27;19911;-81
2021/12/08 04:24:06;;;;;;;;;;;22.40;37.90;;;;;;5139388;27;19937;-84
2021/12/08 04:26:49;;;;;;;;;;;22.40;37.90;;;;;;5139292;27;19907;-81
2021/12/08 04:29:18;;;;;;;;;;;22.40;37.90;;;;;;5157051;27;20026;-80
2021/12/08 04:31:43;;;;;;;;;;;22.40;37.90;;;;;;5157273;27;20343;-81
2021/12/08 04:34:13;;;;;;;;;;;22.40;37.90;;;;;;5122136;27;19918;-81
2021/12/08 04:36:44;;;;;;;;;;;22.40;37.90;;;;;;5122158;27;19907;-83
2021/12/08 04:39:17;;;;;;;;;;;22.40;37.90;;;;;;5122236;27;20252;-81
2021/12/08 04:41:48;;;;;;;;;;;22.40;37.90;;;;;;5140166;27;20337;-81
2021/12/08 04:52:12;;;;;;;;;;;22.30;38.00;;;;;;5142015;27;19967;-81
2021/12/08 05:01:35;;;;;;;;;;;22.30;38.00;;;;;;5141969;27;20458;-81
2021/12/08 05:03:41;;;;;;;;;;;22.40;38.10;;;;;;5126188;27;20371;-84
2021/12/08 05:08:55;;;;;;;;;;;22.30;38.00;;;;;;5141666;27;19922;-83
2021/12/08 05:11:22;;;;;;;;;;;22.30;38.00;;;;;;5121924;27;19917;-80
2021/12/08 05:13:52;;;;;;;;;;;22.30;38.00;;;;;;5121495;27;19918;-82
2021/12/08 05:16:17;;;;;;;;;;;22.30;38.10;;;;;;5139054;27;19911;-80
2021/12/08 05:18:46;;;;;;;;;;;22.30;38.00;;;;;;5138505;27;20354;-81
2021/12/08 05:21:14;;;;;;;;;;;22.30;38.00;;;;;;5121247;27;19948;-80
2021/12/08 05:23:48;;;;;;;;;;;22.40;38.00;;;;;;5121751;27;19971;-84
2021/12/08 05:26:16;;;;;;;;;;;22.30;38.00;;;;;;5138738;27;19919;-82
2021/12/08 05:28:42;;;;;;;;;;;22.30;38.00;;;;;;5124775;27;19911;-81
2021/12/08 05:31:12;;;;;;;;;;;22.40;38.00;;;;;;5142494;27;19930;-81
2021/12/08 05:33:38;;;;;;;;;;;22.40;38.00;;;;;;5142992;27;20304;-81
2021/12/08 05:36:04;;;;;;;;;;;22.30;38.00;;;;;;5143225;27;19911;-81
2021/12/08 05:38:32;;;;;;;;;;;22.30;38.00;;;;;;5124879;27;19918;-82
2021/12/08 05:41:06;;;;;;;;;;;22.30;38.10;;;;;;5142270;27;20220;-81
2021/12/08 05:43:31;;;;;;;;;;;22.30;38.10;;;;;;5142150;27;19907;-80
2021/12/08 05:45:57;;;;;;;;;;;22.30;38.00;;;;;;5142339;27;19970;-84
2021/12/08 05:48:32;;;;;;;;;;;22.30;38.10;;;;;;5142242;27;19959;-80
2021/12/08 05:51:19;;;;;;;;;;;22.30;38.10;;;;;;5142294;27;19930;-83
2021/12/08 05:53:47;;;;;;;;;;;22.30;38.10;;;;;;5125907;27;19959;-84
2021/12/08 05:56:15;;;;;;;;;;;22.30;38.10;;;;;;5143129;27;19907;-82
2021/12/08 05:58:41;;;;;;;;;;;22.30;38.10;;;;;;5125194;27;19994;-81
2021/12/08 06:01:08;;;;;;;;;;;22.30;38.10;;;;;;5125230;27;20011;-82
2021/12/08 06:03:33;;;;;;;;;;;22.30;38.10;;;;;;5125282;27;19907;-82
2021/12/08 06:05:59;;;;;;;;;;;22.30;38.10;;;;;;5125112;27;19961;-83
2021/12/08 06:08:27;;;;;;;;;;;22.30;38.10;;;;;;5125245;27;19918;-83
2021/12/08 06:10:55;;;;;;;;;;;22.30;38.10;;;;;;5125264;27;20336;-80
2021/12/08 06:13:21;;;;;;;;;;;22.30;38.10;;;;;;5142153;27;19907;-82
2021/12/08 06:15:47;;;;;;;;;;;22.30;38.10;;;;;;5124578;27;19911;-82
2021/12/08 06:18:12;;;;;;;;;;;22.30;38.10;;;;;;5141689;27;19907;-81
2021/12/08 06:20:40;;;;;;;;;;;22.30;38.20;;;;;;5124446;27;19919;-84
2021/12/08 06:23:06;;;;;;;;;;;22.30;38.20;;;;;;5141877;27;19911;-82
2021/12/08 06:25:32;;;;;;;;;;;22.30;38.20;;;;;;5124134;27;20074;-82
2021/12/08 06:28:00;;;;;;;;;;;22.30;38.20;;;;;;5124160;27;19918;-81
2021/12/08 06:30:26;;;;;;;;;;;22.30;38.20;;;;;;5123816;27;19911;-80
2021/12/08 06:32:52;;;;;;;;;;;22.30;38.20;;;;;;5124091;27;19911;-83
2021/12/08 06:35:25;;;;;;;;;;;22.30;38.20;;;;;;5124252;27;20332;-83
2021/12/08 06:37:51;;;;;;;;;;;22.30;38.20;;;;;;5158966;27;19913;-81
2021/12/08 06:40:19;;;;;;;;;;;22.20;38.20;;;;;;5141280;27;19998;-80
2021/12/08 06:42:50;;;;;;;;;;;22.30;38.30;;;;;;5141540;27;19907;-83
2021/12/08 06:45:17;;;;;;;;;;;22.20;38.20;;;;;;5141287;27;19908;-79
2021/12/08 06:47:43;;;;;;;;;;;22.20;38.20;;;;;;5123733;27;20243;-81
2021/12/08 06:50:16;;;;;;;;;;;22.20;38.20;;;;;;5140896;27;19911;-81
2021/12/08 06:52:41;;;;;;;;;;;22.30;38.30;;;;;;5159344;27;20347;-81
2021/12/08 06:55:08;;;;;;;;;;;22.20;38.30;;;;;;5141365;27;19907;-81
2021/12/08 06:57:36;;;;;;;;;;;22.20;38.30;;;;;;5124000;27;19976;-79
2021/12/08 07:00:18;;;;;;;;;;;22.20;38.30;;;;;;5141151;27;20245;-82
2021/12/08 07:05:26;;;;;;;;;;;22.30;38.20;;;;;;5141300;27;19914;-81
2021/12/08 07:07:55;;;;;;;;;;;22.20;38.20;;;;;;5125877;27;19918;-83
2021/12/08 07:10:25;;;;;;;;;;;22.20;38.20;;;;;;5123213;27;20229;-81
2021/12/08 07:12:52;;;;;;;;;;;22.30;38.30;;;;;;5123601;27;20340;-80
2021/12/08 07:15:22;;;;;;;;;;;22.20;38.20;;;;;;5122911;27;19914;-82
2021/12/08 07:17:50;;;;;;;;;;;22.20;38.20;;;;;;5140355;27;19971;-79
2021/12/08 07:22:54;;;;;;;;;;;22.20;38.30;;;;;;5141636;27;20025;-81
2021/12/08 07:25:23;;;;;;;;;;;22.20;38.30;;;;;;5140184;27;19907;-83
2021/12/08 07:27:49;;;;;;;;;;;22.20;38.30;;;;;;5140370;27;19918;-82
2021/12/08 07:30:17;;;;;;;;;;;22.20;38.30;;;;;;5140034;27;19911;-82
2021/12/08 07:32:44;;;;;;;;;;;22.20;38.30;;;;;;5122831;27;19971;-82
2021/12/08 07:35:17;;;;;;;;;;;22.20;38.30;;;;;;5123563;27;19907;-83
2021/12/08 07:37:42;;;;;;;;;;;22.30;38.30;;;;;;5123056;27;20252;-83
2021/12/08 07:40:14;;;;;;;;;;;22.20;38.30;;;;;;5123277;27;19915;-82
2021/12/08 07:42:47;;;;;;;;;;;22.20;38.30;;;;;;5122868;27;19918;-81
2021/12/08 07:45:19;;;;;;;;;;;22.20;38.30;;;;;;5123156;27;19936;-81
2021/12/08 07:47:45;;;;;;;;;;;22.20;38.30;;;;;;5140563;27;20043;-82
2021/12/08 07:50:12;;;;;;;;;;;22.20;38.40;;;;;;5121944;27;19975;-79
2021/12/08 07:52:40;;;;;;;;;;;22.20;38.40;;;;;;5123003;27;20006;-81
2021/12/08 07:55:34;;;;;;;;;;;22.20;38.40;;;;;;5140286;27;19911;-80
2021/12/08 07:58:00;;;;;;;;;;;22.20;38.30;;;;;;5136695;27;20123;-81
2021/12/08 08:00:46;;;;;;;;;;;22.20;38.40;;;;;;5139677;27;20367;-83
2021/12/08 08:03:11;;;;;;;;;;;22.20;38.40;;;;;;5143002;27;19907;-80
2021/12/08 08:05:37;;;;;;;;;;;22.20;38.40;;;;;;5139738;27;19911;-81
2021/12/08 08:08:06;;;;;;;;;;;22.20;38.40;;;;;;5121996;27;19907;-80
2021/12/08 08:10:41;;;;;;;;;;;22.20;38.40;;;;;;5157016;27;19911;-80
2021/12/08 08:13:10;;;;;;;;;;;22.20;38.40;;;;;;5139527;27;19956;-80
2021/12/08 08:15:37;;;;;;;;;;;22.20;38.40;;;;;;5122461;27;20221;-80
2021/12/08 08:18:07;;;;;;;;;;;22.20;38.30;;;;;;5122141;27;19915;-82
2021/12/08 08:20:37;;;;;;;;;;;22.20;38.40;;;;;;5122178;27;19929;-81
2021/12/08 08:23:03;;;;;;;;;;;22.20;38.40;;;;;;5122439;27;19954;-83
2021/12/08 08:25:30;;;;;;;;;;;22.20;38.40;;;;;;5123656;27;19918;-82
2021/12/08 08:27:56;;;;;;;;;;;22.20;38.40;;;;;;5139737;27;20248;-83
2021/12/08 08:30:23;;;;;;;;;;;22.20;38.40;;;;;;5123015;27;20320;-83
2021/12/08 08:32:51;;;;;;;;;;;22.10;38.40;;;;;;5122303;27;19907;-82
2021/12/08 08:35:26;;;;;;;;;;;22.20;38.40;;;;;;5122770;27;19911;-83
2021/12/08 08:37:52;;;;;;;;;;;22.20;38.40;;;;;;5122328;27;19907;-82
2021/12/08 08:40:20;;;;;;;;;;;22.20;38.40;;;;;;5122186;27;19907;-84
2021/12/08 08:42:45;;;;;;;;;;;22.20;38.40;;;;;;5139362;27;20007;-81
2021/12/08 08:45:22;;;;;;;;;;;22.20;38.40;;;;;;5138649;27;19907;-82
2021/12/08 08:47:51;;;;;;;;;;;22.20;38.40;;;;;;5121604;27;19907;-83
2021/12/08 08:50:22;;;;;;;;;;;22.20;38.40;;;;;;5121552;27;20412;-80
2021/12/08 08:52:49;;;;;;;;;;;22.20;38.40;;;;;;5122241;27;20193;-82
2021/12/08 08:55:20;;;;;;;;;;;22.20;38.40;;;;;;5122364;27;19907;-82
2021/12/08 08:57:46;;;;;;;;;;;22.20;38.40;;;;;;5121850;27;19915;-80
2021/12/08 09:00:14;;;;;;;;;;;22.20;38.40;;;;;;5121962;27;19915;-82
2021/12/08 09:02:42;;;;;;;;;;;22.20;38.40;;;;;;5125389;27;19907;-82
2021/12/08 09:05:10;;;;;;;;;;;22.20;38.40;;;;;;5143529;27;19907;-83
2021/12/08 09:07:38;;;;;;;;;;;22.20;38.40;;;;;;5161465;27;19955;-81
2021/12/08 09:10:06;;;;;;;;;;;22.20;38.40;;;;;;5126319;27;19922;-84
2021/12/08 09:12:36;;;;;;;;;;;22.20;38.40;;;;;;5125968;27;19908;-82
2021/12/08 09:15:04;;;;;;;;;;;22.20;38.40;;;;;;5126027;27;19907;-82
2021/12/08 09:17:58;;;;;;;;;;;22.20;38.40;;;;;;5161143;27;19907;-82
2021/12/08 09:20:28;;;;;;;;;;;22.20;38.40;;;;;;5140022;27;19919;-81
2021/12/08 09:22:58;;;;;;;;;;;22.20;38.40;;;;;;5160829;27;19952;-81
2021/12/08 09:25:32;;;;;;;;;;;22.20;38.40;;;;;;5125474;27;20312;-80
2021/12/08 09:28:03;;;;;;;;;;;22.10;39.00;;;;;;5124917;27;20328;-79
2021/12/08 09:30:35;;;;;;;;;;;22.10;38.50;;;;;;5125067;27;19911;-79
2021/12/08 09:33:03;;;;;;;;;;;22.20;38.60;;;;;;5142192;27;19971;-79
2021/12/08 09:35:30;;;;;;;;;;;22.20;39.00;;;;;;5141871;27;19918;-79
2021/12/08 09:37:57;;;;;;;;;;;22.30;39.30;;;;;;5142120;27;19967;-77
2021/12/08 09:40:27;;;;;;;;;;;22.30;39.70;;;;;;5124965;27;20311;-77
2021/12/08 09:42:54;;;;;;;;;;;22.30;40.30;;;;;;5160477;27;19968;-79
2021/12/08 09:45:24;;;;;;;;;;;22.40;41.50;;;;;;5142270;27;20011;-81
2021/12/08 09:47:49;;;;;;;;;;;22.40;41.70;;;;;;5142374;27;19925;-79
2021/12/08 09:50:15;;;;;;;;;;;22.40;42.40;;;;;;5142523;27;20346;-80
2021/12/08 09:52:43;;;;;;;;;;;22.40;42.80;;;;;;5142170;27;19918;-79
2021/12/08 09:55:13;;;;;;;;;;;22.50;43.40;;;;;;5142018;27;20224;-82
2021/12/08 09:57:38;;;;;;;;;;;22.50;44.00;;;;;;5124868;27;20347;-78
2021/12/08 10:00:08;;;;;;;;;;;22.60;44.00;;;;;;5124284;27;19973;-79
2021/12/08 10:02:37;;;;;;;;;;;22.60;43.70;;;;;;5124732;27;19941;-78
2021/12/08 10:05:05;;;;;;;;;;;22.70;43.60;;;;;;5141746;27;19907;-81
2021/12/08 10:07:31;;;;;;;;;;;22.70;43.30;;;;;;5124409;27;20400;-79
2021/12/08 10:09:56;;;;;;;;;;;22.70;43.20;;;;;;5124472;27;19946;-80
2021/12/08 10:12:24;;;;;;;;;;;22.80;45.70;;;;;;5141191;27;19907;-80
2021/12/08 10:14:50;;;;;;;;;;;22.80;45.70;;;;;;5141772;27;20300;-80
2021/12/08 10:17:19;;;;;;;;;;;22.80;45.70;;;;;;5124424;27;19914;-82
2021/12/08 10:20:01;;;;;;;;;;;22.90;48.40;;;;;;5124603;27;19930;-80
2021/12/08 10:22:27;;;;;;;;;;;23.00;48.60;;;;;;5124516;27;19918;-80
2021/12/08 10:25:12;;;;;;;;;;;23.10;48.30;;;;;;5141403;27;20293;-81
2021/12/08 10:27:56;;;;;;;;;;;23.20;47.50;;;;;;5123865;27;20373;-79
2021/12/08 10:30:22;;;;;;;;;;;23.00;47.70;;;;;;5158998;27;20379;-80
2021/12/08 10:32:49;;;;;;;;;;;22.90;49.90;;;;;;5141031;27;19915;-81
2021/12/08 10:35:39;;;;;;;;;;;22.90;50.70;;;;;;5124231;27;19907;-81
2021/12/08 10:38:05;;;;;;;;;;;22.90;51.10;;;;;;5140831;27;19955;-80
2021/12/08 10:40:31;;;;;;;;;;;23.00;51.30;;;;;;5141180;27;20380;-82
2021/12/08 10:43:01;;;;;;;;;;;23.00;51.50;;;;;;5159212;27;20010;-83
2021/12/08 10:45:31;;;;;;;;;;;23.10;51.80;;;;;;5123999;27;19911;-81
2021/12/08 10:48:00;;;;;;;;;;;23.20;52.10;;;;;;5141714;27;19907;-83
2021/12/08 10:56:00;;;;;;;;;;;23.40;51.80;;;;;;5143553;27;20010;-83
2021/12/08 10:58:28;;;;;;;;;;;23.40;51.40;;;;;;5123703;27;19914;-81
2021/12/08 11:00:54;;;;;;;;;;;23.50;51.30;;;;;;5123813;27;19908;-80
2021/12/08 11:03:20;;;;;;;;;;;23.50;51.20;;;;;;5123426;27;19907;-81
2021/12/08 11:05:55;;;;;;;;;;;23.50;51.20;;;;;;5140504;27;19918;-81
2021/12/08 11:08:33;;;;;;;;;;;23.50;51.10;;;;;;5123193;27;20281;-80
2021/12/08 11:11:10;;;;;;;;;;;23.60;51.00;;;;;;5123670;27;19955;-83
2021/12/08 11:13:40;;;;;;;;;;;23.60;51.50;;;;;;5123573;27;19907;-81
2021/12/08 11:16:14;;;;;;;;;;;23.60;50.80;;;;;;5140842;27;19918;-81
2021/12/08 11:18:40;;;;;;;;;;;23.60;50.60;;;;;;5140139;27;19908;-79
2021/12/08 11:21:15;;;;;;;;;;;23.70;50.40;;;;;;5123102;27;19919;-82
2021/12/08 11:23:45;;;;;;;;;;;23.70;50.40;;;;;;5158413;27;19942;-81
2021/12/08 11:26:13;;;;;;;;;;;23.70;50.20;;;;;;5139955;27;19934;-83
2021/12/08 11:28:41;;;;;;;;;;;23.70;50.10;;;;;;5139877;27;19907;-82
2021/12/08 11:31:11;;;;;;;;;;;23.70;50.10;;;;;;5123080;27;19922;-85
2021/12/08 11:33:43;;;;;;;;;;;23.70;49.90;;;;;;5122810;27;19983;-80
2021/12/08 11:36:11;;;;;;;;;;;23.80;50.00;;;;;;5140349;27;19906;-82
2021/12/08 11:38:40;;;;;;;;;;;23.80;49.90;;;;;;5157935;27;19910;-80
2021/12/08 11:41:11;;;;;;;;;;;23.80;49.70;;;;;;5122991;27;19907;-79
2021/12/08 11:43:36;;;;;;;;;;;23.80;49.70;;;;;;5122954;27;19914;-79
2021/12/08 11:46:14;;;;;;;;;;;23.80;49.50;;;;;;5139742;27;19907;-79
2021/12/08 11:48:48;;;;;;;;;;;23.80;49.40;;;;;;5122919;27;19907;-80
2021/12/08 11:51:15;;;;;;;;;;;23.90;49.40;;;;;;5122593;27;20333;-81
2021/12/08 11:53:41;;;;;;;;;;;23.90;49.20;;;;;;5122833;27;19917;-79
2021/12/08 11:56:08;;;;;;;;;;;23.90;49.20;;;;;;5139375;27;20322;-80
2021/12/08 11:58:34;;;;;;;;;;;23.90;49.00;;;;;;5139933;27;20221;-81
2021/12/08 12:01:02;;;;;;;;;;;23.90;48.90;;;;;;5139457;27;19920;-82
2021/12/08 12:03:28;;;;;;;;;;;24.00;48.80;;;;;;5139907;27;19917;-86
2021/12/08 12:05:53;;;;;;;;;;;24.00;48.70;;;;;;5140242;27;20258;-83
2021/12/08 12:08:22;;;;;;;;;;;24.00;48.60;;;;;;5139829;27;20396;-82
2021/12/08 12:10:51;;;;;;;;;;;24.10;48.50;;;;;;5122515;27;19962;-82
2021/12/08 12:13:17;;;;;;;;;;;24.00;48.40;;;;;;5139784;27;19911;-81
2021/12/08 12:15:49;;;;;;;;;;;24.10;48.30;;;;;;5122553;27;20303;-83
2021/12/08 12:18:18;;;;;;;;;;;24.10;48.20;;;;;;5123341;27;19907;-82
2021/12/08 12:20:46;;;;;;;;;;;24.10;48.10;;;;;;5122258;27;19919;-81
2021/12/08 12:23:20;;;;;;;;;;;24.10;48.00;;;;;;5122624;27;19918;-82
2021/12/08 12:26:04;;;;;;;;;;;24.10;47.90;;;;;;5139510;27;19967;-81
2021/12/08 12:28:49;;;;;;;;;;;24.20;47.70;;;;;;5139497;27;20021;-82
2021/12/08 12:31:33;;;;;;;;;;;24.20;47.60;;;;;;5157481;27;19926;-81
2021/12/08 12:33:58;;;;;;;;;;;24.20;47.60;;;;;;5157567;27;19914;-81
2021/12/08 12:36:27;;;;;;;;;;;24.20;47.50;;;;;;5121920;27;19907;-81
2021/12/08 12:38:52;;;;;;;;;;;24.20;47.40;;;;;;5122151;27;19950;-81
2021/12/08 12:41:24;;;;;;;;;;;24.20;47.30;;;;;;5139536;27;19907;-82
2021/12/08 12:43:52;;;;;;;;;;;24.20;47.20;;;;;;5140023;27;19915;-82
2021/12/08 12:46:18;;;;;;;;;;;24.20;47.10;;;;;;5122406;27;19930;-83
2021/12/08 12:48:50;;;;;;;;;;;24.20;47.10;;;;;;5139106;27;20235;-81
2021/12/08 12:51:18;;;;;;;;;;;24.20;47.00;;;;;;5123077;27;19996;-82
2021/12/08 12:53:53;;;;;;;;;;;24.20;47.00;;;;;;5122360;27;19914;-79
2021/12/08 12:56:27;;;;;;;;;;;24.30;46.90;;;;;;5157697;27;20002;-81
2021/12/08 12:58:53;;;;;;;;;;;24.30;46.80;;;;;;5139255;27;20251;-81
2021/12/08 13:01:27;;;;;;;;;;;24.30;46.80;;;;;;5122146;27;19907;-82
2021/12/08 13:03:56;;;;;;;;;;;24.20;46.70;;;;;;5122191;27;19946;-79
2021/12/08 13:06:40;;;;;;;;;;;24.30;46.70;;;;;;5139473;27;19907;-81
2021/12/08 13:09:09;;;;;;;;;;;24.30;46.70;;;;;;5139272;27;19928;-82
2021/12/08 13:11:57;;;;;;;;;;;24.30;46.60;;;;;;5121882;27;19915;-79
2021/12/08 13:14:24;;;;;;;;;;;24.30;46.30;;;;;;5139050;27;19908;-81
2021/12/08 13:17:08;;;;;;;;;;;24.30;46.10;;;;;;5122637;27;20329;-80
2021/12/08 13:19:39;;;;;;;;;;;24.30;45.80;;;;;;5138281;27;19974;-82
2021/12/08 13:22:07;;;;;;;;;;;24.20;45.60;;;;;;5121926;27;19915;-82
2021/12/08 13:24:33;;;;;;;;;;;24.20;45.40;;;;;;5139044;27;19963;-79
2021/12/08 13:27:05;;;;;;;;;;;24.20;45.30;;;;;;5156824;27;19911;-83
2021/12/08 13:29:34;;;;;;;;;;;24.20;45.30;;;;;;5139756;27;19917;-80
2021/12/08 13:32:10;;;;;;;;;;;24.20;45.50;;;;;;5122445;27;19907;-79
2021/12/08 13:34:38;;;;;;;;;;;24.20;45.60;;;;;;5123005;27;20324;-79
2021/12/08 13:37:16;;;;;;;;;;;24.20;45.60;;;;;;5139365;27;20356;-80
2021/12/08 13:39:47;;;;;;;;;;;24.30;45.40;;;;;;5122399;27;19907;-81
2021/12/08 13:42:13;;;;;;;;;;;22.30;33.70;;;;;;5122060;27;19967;-82
2021/12/08 13:44:40;;;;;;;;;;;20.60;35.60;;;;;;5121783;27;19907;-85
2021/12/08 13:47:09;;;;;;;;;;;20.30;34.90;;;;;;5121606;27;20336;-78
2021/12/08 13:49:47;;;;;;;;;;;19.90;39.50;;;;;;5124053;27;20244;-78
2021/12/08 13:52:14;;;;;;;;;;;20.20;41.50;;;;;;5125528;27;19926;-77
2021/12/08 13:54:40;;;;;;;;;;;20.60;41.80;;;;;;5142398;27;19907;-78
2021/12/08 13:57:24;;;;;;;;;;;21.10;41.40;;;;;;5142477;27;19918;-75
2021/12/08 13:59:56;;;;;;;;;;;21.50;41.00;;;;;;5160402;27;19950;-84
2021/12/08 14:02:31;;;;;;;;;;;21.80;40.40;;;;;;5142049;27;19990;-79
2021/12/08 14:05:01;;;;;;;;;;;22.10;40.50;;;;;;5142455;27;20355;-78
2021/12/08 14:07:26;;;;;;;;;;;22.40;40.30;;;;;;5143006;27;19930;-77
2021/12/08 14:10:00;;;;;;;;;;;22.60;40.30;;;;;;5142169;27;20247;-79
2021/12/08 14:12:48;;;;;;;;;;;22.80;40.20;;;;;;5142153;27;19907;-80
2021/12/08 14:15:17;;;;;;;;;;;23.00;40.20;;;;;;5141935;27;19937;-79
2021/12/08 14:17:43;;;;;;;;;;;23.10;40.30;;;;;;5142098;27;19975;-79
2021/12/08 14:20:29;;;;;;;;;;;23.20;40.20;;;;;;5124409;27;19927;-78
2021/12/08 14:22:57;;;;;;;;;;;23.30;40.20;;;;;;5141666;27;20285;-79
2021/12/08 14:25:41;;;;;;;;;;;23.30;40.20;;;;;;5142734;27;19907;-78
2021/12/08 14:28:27;;;;;;;;;;;23.40;40.20;;;;;;5142356;27;20293;-80
2021/12/08 14:30:56;;;;;;;;;;;23.50;40.30;;;;;;5160304;27;19933;-77
2021/12/08 14:33:24;;;;;;;;;;;23.60;40.30;;;;;;5142247;27;19947;-77
2021/12/08 14:35:57;;;;;;;;;;;23.70;40.30;;;;;;5125167;27;20363;-79
2021/12/08 14:38:22;;;;;;;;;;;23.70;40.30;;;;;;5142100;27;19956;-79
2021/12/08 14:40:48;;;;;;;;;;;23.80;40.20;;;;;;5141788;27;19915;-79
2021/12/08 14:43:24;;;;;;;;;;;23.80;40.10;;;;;;5124401;27;20011;-79
2021/12/08 14:45:49;;;;;;;;;;;23.90;40.10;;;;;;5126158;27;20485;-76
2021/12/08 14:48:15;;;;;;;;;;;23.90;40.10;;;;;;5130037;27;19932;-78
2021/12/08 14:50:40;;;;;;;;;;;24.00;40.10;;;;;;5126891;27;19911;-78
2021/12/08 14:53:12;;;;;;;;;;;24.00;40.10;;;;;;5145184;27;19918;-78
2021/12/08 14:55:43;;;;;;;;;;;24.10;40.20;;;;;;5130406;27;19911;-79
2021/12/08 14:58:11;;;;;;;;;;;24.10;40.10;;;;;;5145324;27;19918;-82
2021/12/08 15:00:38;;;;;;;;;;;24.10;40.10;;;;;;5127893;27;19908;-78
2021/12/08 15:03:10;;;;;;;;;;;24.10;40.10;;;;;;5144754;27;19907;-82
2021/12/08 15:05:38;;;;;;;;;;;24.20;40.10;;;;;;5129783;27;19917;-80
2021/12/08 15:08:13;;;;;;;;;;;24.20;40.10;;;;;;5144539;27;19907;-78
2021/12/08 15:10:38;;;;;;;;;;;24.20;40.20;;;;;;5144108;27;19978;-78
2021/12/08 15:13:09;;;;;;;;;;;24.20;40.20;;;;;;5145368;27;20306;-76
2021/12/08 15:15:37;;;;;;;;;;;23.40;30.80;;;;;;5159785;27;19914;-77
2021/12/08 15:18:07;;;;;;;;;;;21.60;31.20;;;;;;5124638;27;19907;-83
2021/12/08 15:20:38;;;;;;;;;;;20.40;36.40;;;;;;5110713;27;19919;-80
2021/12/08 15:23:13;;;;;;;;;;;20.60;38.70;;;;;;5120843;27;20394;-79
2021/12/08 15:25:42;;;;;;;;;;;21.00;39.10;;;;;;5120511;27;19907;-78